sensor_id;sensor_type;location;lat;lon;timestamp;pressure;altitude;pressure_sealevel;temperature;humidity
6668;BME280;3370;47.712;9.082;2024-03-02T00:00:08;95929.41;;;4.21;100.00
6668;BME280;3370;47.712;9.082;2024-03-02T00:03:00;95924.72;;;4.10;100.00
6668;BME280;3370;47.712;9.082;2024-03-02T00:05:50;95932.38;;;4.09;100.00
6668;BME280;3370;47.712;9.082;2024-03-02T00:08:37;95936.06;;;4.23;100.00
6668;BME280;3370;47.712;9.082;2024-03-02T00:11:24;95931.81;;;4.24;100.00
6668;BME280;3370;47.712;9.082;2024-03-02T00:14:10;95935.47;;;4.17;100.00
6668;BME280;3370;47.712;9.082;2024-03-02T00:16:56;95936.47;;;4.13;100.00
6668;BME280;3370;47.712;9.082;2024-03-02T00:19:42;95936.88;;;4.24;100.00
6668;BME280;3370;47.712;9.082;2024-03-02T00:22:28;95942.81;;;4.02;100.00
6668;BME280;3370;47.712;9.082;2024-03-02T00:25:15;95949.16;;;3.91;100.00
6668;BME280;3370;47.712;9.082;2024-03-02T00:28:01;95957.16;;;4.03;100.00
6668;BME280;3370;47.712;9.082;2024-03-02T00:31:09;95963.59;;;3.90;100.00
6668;BME280;3370;47.712;9.082;2024-03-02T00:33:59;95950.09;;;3.88;100.00
6668;BME280;3370;47.712;9.082;2024-03-02T00:36:49;95960.16;;;3.91;100.00
6668;BME280;3370;47.712;9.082;2024-03-02T00:39:35;95967.00;;;3.89;100.00
6668;BME280;3370;47.712;9.082;2024-03-02T00:42:21;95958.38;;;3.93;100.00
6668;BME280;3370;47.712;9.082;2024-03-02T00:45:11;95958.06;;;4.02;100.00
6668;BME280;3370;47.712;9.082;2024-03-02T00:47:57;95966.28;;;4.09;100.00
6668;BME280;3370;47.712;9.082;2024-03-02T00:50:44;95958.66;;;4.09;100.00
6668;BME280;3370;47.712;9.082;2024-03-02T00:53:31;95964.00;;;4.25;100.00
6668;BME280;3370;47.712;9.082;2024-03-02T00:56:20;95966.72;;;4.20;100.00
6668;BME280;3370;47.712;9.082;2024-03-02T00:59:06;95973.19;;;4.29;100.00
6668;BME280;3370;47.712;9.082;2024-03-02T01:01:52;95963.88;;;4.06;100.00
6668;BME280;3370;47.712;9.082;2024-03-02T01:04:39;95966.69;;;3.98;100.00
6668;BME280;3370;47.712;9.082;2024-03-02T01:07:25;95960.28;;;3.88;100.00
6668;BME280;3370;47.712;9.082;2024-03-02T01:10:12;95966.81;;;3.95;100.00
6668;BME280;3370;47.712;9.082;2024-03-02T01:12:58;95973.97;;;3.84;100.00
6668;BME280;3370;47.712;9.082;2024-03-02T01:15:44;95969.88;;;3.80;100.00
6668;BME280;3370;47.712;9.082;2024-03-02T01:18:30;95975.75;;;3.82;100.00
6668;BME280;3370;47.712;9.082;2024-03-02T01:21:17;95956.84;;;3.89;100.00
6668;BME280;3370;47.712;9.082;2024-03-02T01:24:03;95979.72;;;3.89;100.00
6668;BME280;3370;47.712;9.082;2024-03-02T01:26:49;95988.84;;;3.71;100.00
6668;BME280;3370;47.712;9.082;2024-03-02T01:29:36;95986.47;;;3.67;100.00
6668;BME280;3370;47.712;9.082;2024-03-02T01:32:22;95982.16;;;3.69;100.00
6668;BME280;3370;47.712;9.082;2024-03-02T01:35:08;95984.47;;;3.75;100.00
6668;BME280;3370;47.712;9.082;2024-03-02T01:37:54;95992.88;;;3.77;100.00
6668;BME280;3370;47.712;9.082;2024-03-02T01:40:42;95981.72;;;3.81;100.00
6668;BME280;3370;47.712;9.082;2024-03-02T01:43:30;95982.59;;;3.80;100.00
6668;BME280;3370;47.712;9.082;2024-03-02T01:46:16;95980.63;;;3.88;100.00
6668;BME280;3370;47.712;9.082;2024-03-02T01:49:02;95977.47;;;4.05;100.00
6668;BME280;3370;47.712;9.082;2024-03-02T01:51:48;95975.88;;;4.02;100.00
6668;BME280;3370;47.712;9.082;2024-03-02T01:54:34;95975.06;;;4.00;100.00
6668;BME280;3370;47.712;9.082;2024-03-02T01:57:20;95974.97;;;4.03;100.00
6668;BME280;3370;47.712;9.082;2024-03-02T02:00:07;95979.97;;;4.07;100.00
6668;BME280;3370;47.712;9.082;2024-03-02T02:02:53;95974.63;;;4.13;100.00
6668;BME280;3370;47.712;9.082;2024-03-02T02:05:42;95979.53;;;4.19;100.00
6668;BME280;3370;47.712;9.082;2024-03-02T02:08:28;95983.59;;;4.23;100.00
6668;BME280;3370;47.712;9.082;2024-03-02T02:11:17;95980.00;;;4.29;100.00
6668;BME280;3370;47.712;9.082;2024-03-02T02:14:03;95977.56;;;4.26;100.00
6668;BME280;3370;47.712;9.082;2024-03-02T02:16:49;95982.50;;;4.30;100.00
6668;BME280;3370;47.712;9.082;2024-03-02T02:19:36;95977.41;;;4.30;100.00
6668;BME280;3370;47.712;9.082;2024-03-02T02:22:22;95969.00;;;4.28;100.00
6668;BME280;3370;47.712;9.082;2024-03-02T02:25:08;95959.78;;;4.24;100.00
6668;BME280;3370;47.712;9.082;2024-03-02T02:27:54;95959.63;;;4.29;100.00
6668;BME280;3370;47.712;9.082;2024-03-02T02:30:41;95952.97;;;4.26;100.00
6668;BME280;3370;47.712;9.082;2024-03-02T02:33:27;95956.94;;;4.33;100.00
6668;BME280;3370;47.712;9.082;2024-03-02T02:36:13;95952.06;;;4.27;100.00
6668;BME280;3370;47.712;9.082;2024-03-02T02:39:03;95949.94;;;4.38;100.00
6668;BME280;3370;47.712;9.082;2024-03-02T02:41:49;95955.59;;;4.23;100.00
6668;BME280;3370;47.712;9.082;2024-03-02T02:44:35;95964.72;;;4.29;100.00
6668;BME280;3370;47.712;9.082;2024-03-02T02:47:21;95968.63;;;4.15;100.00
6668;BME280;3370;47.712;9.082;2024-03-02T02:50:08;95962.13;;;4.30;100.00
6668;BME280;3370;47.712;9.082;2024-03-02T02:52:54;95973.13;;;4.31;100.00
6668;BME280;3370;47.712;9.082;2024-03-02T02:55:40;95968.63;;;4.15;100.00
6668;BME280;3370;47.712;9.082;2024-03-02T02:58:27;95961.16;;;4.11;100.00
6668;BME280;3370;47.712;9.082;2024-03-02T03:01:13;95966.94;;;4.14;100.00
6668;BME280;3370;47.712;9.082;2024-03-02T03:03:59;95963.69;;;4.11;100.00
6668;BME280;3370;47.712;9.082;2024-03-02T03:06:45;95965.19;;;4.16;100.00
6668;BME280;3370;47.712;9.082;2024-03-02T03:09:32;95954.84;;;4.21;100.00
6668;BME280;3370;47.712;9.082;2024-03-02T03:12:18;95956.66;;;4.17;100.00
6668;BME280;3370;47.712;9.082;2024-03-02T03:15:05;95960.69;;;4.23;100.00
6668;BME280;3370;47.712;9.082;2024-03-02T03:17:52;95964.25;;;4.19;100.00
6668;BME280;3370;47.712;9.082;2024-03-02T03:20:38;95962.34;;;4.24;100.00
6668;BME280;3370;47.712;9.082;2024-03-02T03:23:24;95961.47;;;4.25;100.00
6668;BME280;3370;47.712;9.082;2024-03-02T03:26:11;95965.88;;;4.20;100.00
6668;BME280;3370;47.712;9.082;2024-03-02T03:28:57;95964.31;;;4.17;100.00
6668;BME280;3370;47.712;9.082;2024-03-02T03:31:44;95953.78;;;4.27;100.00
6668;BME280;3370;47.712;9.082;2024-03-02T03:34:32;95960.50;;;4.28;100.00
6668;BME280;3370;47.712;9.082;2024-03-02T03:37:18;95961.34;;;4.28;100.00
6668;BME280;3370;47.712;9.082;2024-03-02T03:40:06;95957.03;;;4.30;100.00
6668;BME280;3370;47.712;9.082;2024-03-02T03:42:55;95958.81;;;4.28;100.00
6668;BME280;3370;47.712;9.082;2024-03-02T03:45:42;95952.16;;;4.24;100.00
6668;BME280;3370;47.712;9.082;2024-03-02T03:48:30;95962.22;;;4.27;100.00
6668;BME280;3370;47.712;9.082;2024-03-02T03:51:16;95955.41;;;4.28;100.00
6668;BME280;3370;47.712;9.082;2024-03-02T03:54:02;95953.16;;;4.20;100.00
6668;BME280;3370;47.712;9.082;2024-03-02T03:56:48;95957.50;;;4.18;100.00
6668;BME280;3370;47.712;9.082;2024-03-02T03:59:34;95959.38;;;4.13;100.00
6668;BME280;3370;47.712;9.082;2024-03-02T04:02:23;95959.38;;;4.13;100.00
6668;BME280;3370;47.712;9.082;2024-03-02T04:05:10;95960.31;;;4.10;100.00
6668;BME280;3370;47.712;9.082;2024-03-02T04:07:56;95965.06;;;4.19;100.00
6668;BME280;3370;47.712;9.082;2024-03-02T04:10:42;95967.78;;;4.15;100.00
6668;BME280;3370;47.712;9.082;2024-03-02T04:13:28;95971.31;;;4.11;100.00
6668;BME280;3370;47.712;9.082;2024-03-02T04:16:14;95966.41;;;4.06;100.00
6668;BME280;3370;47.712;9.082;2024-03-02T04:19:00;95966.47;;;4.05;100.00
6668;BME280;3370;47.712;9.082;2024-03-02T04:21:47;95964.84;;;4.02;100.00
6668;BME280;3370;47.712;9.082;2024-03-02T04:24:33;95969.88;;;4.03;100.00
6668;BME280;3370;47.712;9.082;2024-03-02T04:27:19;95969.00;;;4.05;100.00
6668;BME280;3370;47.712;9.082;2024-03-02T04:30:06;95973.34;;;4.02;100.00
6668;BME280;3370;47.712;9.082;2024-03-02T04:32:52;95970.94;;;3.98;100.00
6668;BME280;3370;47.712;9.082;2024-03-02T04:35:38;95964.91;;;4.00;100.00
6668;BME280;3370;47.712;9.082;2024-03-02T04:38:24;95971.75;;;3.98;100.00
6668;BME280;3370;47.712;9.082;2024-03-02T04:41:10;95976.66;;;4.05;100.00
6668;BME280;3370;47.712;9.082;2024-03-02T04:43:56;95975.88;;;4.02;100.00
6668;BME280;3370;47.712;9.082;2024-03-02T04:46:42;95986.06;;;4.02;100.00
6668;BME280;3370;47.712;9.082;2024-03-02T04:49:28;95980.84;;;4.06;100.00
6668;BME280;3370;47.712;9.082;2024-03-02T04:52:14;95974.81;;;4.08;100.00
6668;BME280;3370;47.712;9.082;2024-03-02T04:55:00;95979.81;;;4.10;100.00
6668;BME280;3370;47.712;9.082;2024-03-02T04:58:02;95987.31;;;4.14;100.00
6668;BME280;3370;47.712;9.082;2024-03-02T05:00:48;95977.47;;;4.05;100.00
6668;BME280;3370;47.712;9.082;2024-03-02T05:03:34;95969.78;;;4.07;100.00
6668;BME280;3370;47.712;9.082;2024-03-02T05:06:20;95966.13;;;4.14;100.00
6668;BME280;3370;47.712;9.082;2024-03-02T05:09:10;95968.97;;;4.06;100.00
6668;BME280;3370;47.712;9.082;2024-03-02T05:11:56;95975.22;;;3.97;100.00
6668;BME280;3370;47.712;9.082;2024-03-02T05:15:03;95981.78;;;4.03;100.00
6668;BME280;3370;47.712;9.082;2024-03-02T05:17:49;95988.13;;;3.91;100.00
6668;BME280;3370;47.712;9.082;2024-03-02T05:20:35;95985.00;;;3.84;100.00
6668;BME280;3370;47.712;9.082;2024-03-02T05:23:22;95983.94;;;3.90;100.00
6668;BME280;3370;47.712;9.082;2024-03-02T05:26:08;95982.38;;;3.86;100.00
6668;BME280;3370;47.712;9.082;2024-03-02T05:28:55;95977.50;;;3.80;100.00
6668;BME280;3370;47.712;9.082;2024-03-02T05:31:41;95984.13;;;3.84;100.00
6668;BME280;3370;47.712;9.082;2024-03-02T05:34:27;95995.38;;;3.78;100.00
6668;BME280;3370;47.712;9.082;2024-03-02T05:37:13;95984.13;;;3.84;100.00
6668;BME280;3370;47.712;9.082;2024-03-02T05:39:59;95996.03;;;3.83;100.00
6668;BME280;3370;47.712;9.082;2024-03-02T05:42:45;95998.91;;;3.74;100.00
6668;BME280;3370;47.712;9.082;2024-03-02T05:45:33;95999.94;;;3.69;100.00
6668;BME280;3370;47.712;9.082;2024-03-02T05:48:19;96005.53;;;3.78;100.00
6668;BME280;3370;47.712;9.082;2024-03-02T05:51:05;96002.16;;;3.78;100.00
6668;BME280;3370;47.712;9.082;2024-03-02T05:53:51;95991.13;;;3.79;100.00
6668;BME280;3370;47.712;9.082;2024-03-02T05:56:37;95988.41;;;3.83;100.00
6668;BME280;3370;47.712;9.082;2024-03-02T05:59:23;95991.81;;;3.82;100.00
6668;BME280;3370;47.712;9.082;2024-03-02T06:02:09;95993.09;;;3.71;100.00
6668;BME280;3370;47.712;9.082;2024-03-02T06:04:56;95998.50;;;3.61;100.00
6668;BME280;3370;47.712;9.082;2024-03-02T06:07:43;95993.03;;;3.72;100.00
6668;BME280;3370;47.712;9.082;2024-03-02T06:10:29;95993.81;;;3.74;100.00
6668;BME280;3370;47.712;9.082;2024-03-02T06:13:15;95995.50;;;3.75;100.00
6668;BME280;3370;47.712;9.082;2024-03-02T06:16:01;95994.63;;;3.75;100.00
6668;BME280;3370;47.712;9.082;2024-03-02T06:18:47;96000.34;;;3.81;100.00
6668;BME280;3370;47.712;9.082;2024-03-02T06:21:33;96000.97;;;3.88;100.00
6668;BME280;3370;47.712;9.082;2024-03-02T06:24:19;96009.56;;;3.84;100.00
6668;BME280;3370;47.712;9.082;2024-03-02T06:27:05;96013.13;;;3.80;100.00
6668;BME280;3370;47.712;9.082;2024-03-02T06:29:51;96014.06;;;3.77;100.00
6668;BME280;3370;47.712;9.082;2024-03-02T06:32:37;96014.78;;;3.81;100.00
6668;BME280;3370;47.712;9.082;2024-03-02T06:35:23;96013.94;;;3.80;100.00
6668;BME280;3370;47.712;9.082;2024-03-02T06:38:09;96018.91;;;3.83;100.00
6668;BME280;3370;47.712;9.082;2024-03-02T06:40:55;96021.19;;;3.91;100.00
6668;BME280;3370;47.712;9.082;2024-03-02T06:43:42;96022.75;;;3.95;100.00
6668;BME280;3370;47.712;9.082;2024-03-02T06:46:28;96019.41;;;3.93;100.00
6668;BME280;3370;47.712;9.082;2024-03-02T06:49:14;96009.25;;;3.93;100.00
6668;BME280;3370;47.712;9.082;2024-03-02T06:52:00;96013.22;;;4.00;100.00
6668;BME280;3370;47.712;9.082;2024-03-02T06:54:46;96020.88;;;4.00;100.00
6668;BME280;3370;47.712;9.082;2024-03-02T06:57:32;96016.72;;;3.98;100.00
6668;BME280;3370;47.712;9.082;2024-03-02T07:00:19;96013.91;;;4.06;100.00
6668;BME280;3370;47.712;9.082;2024-03-02T07:03:06;96010.16;;;4.16;100.00
6668;BME280;3370;47.712;9.082;2024-03-02T07:05:52;96022.09;;;4.14;100.00
6668;BME280;3370;47.712;9.082;2024-03-02T07:08:38;96004.06;;;4.20;100.00
6668;BME280;3370;47.712;9.082;2024-03-02T07:11:24;96008.38;;;4.18;100.00
6668;BME280;3370;47.712;9.082;2024-03-02T07:14:10;96009.19;;;4.18;100.00
6668;BME280;3370;47.712;9.082;2024-03-02T07:16:57;96003.19;;;4.21;100.00
6668;BME280;3370;47.712;9.082;2024-03-02T07:19:43;96005.59;;;4.24;100.00
6668;BME280;3370;47.712;9.082;2024-03-02T07:22:29;96006.97;;;4.33;100.00
6668;BME280;3370;47.712;9.082;2024-03-02T07:25:15;96009.81;;;4.25;100.00
6668;BME280;3370;47.712;9.082;2024-03-02T07:28:03;96010.78;;;4.22;100.00
6668;BME280;3370;47.712;9.082;2024-03-02T07:31:03;96016.56;;;4.26;100.00
6668;BME280;3370;47.712;9.082;2024-03-02T07:33:50;96010.69;;;4.24;100.00
6668;BME280;3370;47.712;9.082;2024-03-02T07:36:36;96013.94;;;4.28;100.00
6668;BME280;3370;47.712;9.082;2024-03-02T07:39:24;96011.25;;;4.32;100.00
6668;BME280;3370;47.712;9.082;2024-03-02T07:42:11;96015.19;;;4.41;100.00
6668;BME280;3370;47.712;9.082;2024-03-02T07:44:57;96009.56;;;4.31;100.00
6668;BME280;3370;47.712;9.082;2024-03-02T07:47:43;96004.63;;;4.28;100.00
6668;BME280;3370;47.712;9.082;2024-03-02T07:50:30;96008.41;;;4.40;100.00
6668;BME280;3370;47.712;9.082;2024-03-02T07:53:17;96007.50;;;4.43;100.00
6668;BME280;3370;47.712;9.082;2024-03-02T07:56:03;96008.13;;;4.48;100.00
6668;BME280;3370;47.712;9.082;2024-03-02T07:58:49;96006.91;;;4.58;100.00
6668;BME280;3370;47.712;9.082;2024-03-02T08:01:36;96007.84;;;4.55;100.00
6668;BME280;3370;47.712;9.082;2024-03-02T08:04:22;95998.13;;;4.43;100.00
6668;BME280;3370;47.712;9.082;2024-03-02T08:07:09;96000.47;;;4.48;100.00
6668;BME280;3370;47.712;9.082;2024-03-02T08:09:55;95989.47;;;4.47;100.00
6668;BME280;3370;47.712;9.082;2024-03-02T08:12:41;95990.56;;;4.64;100.00
6668;BME280;3370;47.712;9.082;2024-03-02T08:15:27;95990.97;;;4.75;100.00
6668;BME280;3370;47.712;9.082;2024-03-02T08:18:13;95995.78;;;4.83;100.00
6668;BME280;3370;47.712;9.082;2024-03-02T08:20:59;95992.31;;;4.84;100.00
6668;BME280;3370;47.712;9.082;2024-03-02T08:23:46;95989.41;;;4.93;100.00
6668;BME280;3370;47.712;9.082;2024-03-02T08:26:32;95990.44;;;4.89;100.00
6668;BME280;3370;47.712;9.082;2024-03-02T08:29:18;95991.63;;;4.80;100.00
6668;BME280;3370;47.712;9.082;2024-03-02T08:32:05;95983.25;;;4.76;100.00
6668;BME280;3370;47.712;9.082;2024-03-02T08:34:51;95993.75;;;4.91;100.00
6668;BME280;3370;47.712;9.082;2024-03-02T08:37:40;95995.53;;;4.89;100.00
6668;BME280;3370;47.712;9.082;2024-03-02T08:40:27;95992.66;;;4.96;100.00
6668;BME280;3370;47.712;9.082;2024-03-02T08:43:13;95991.47;;;5.05;100.00
6668;BME280;3370;47.712;9.082;2024-03-02T08:45:59;95984.81;;;5.03;100.00
6668;BME280;3370;47.712;9.082;2024-03-02T08:48:45;95989.91;;;5.23;100.00
6668;BME280;3370;47.712;9.082;2024-03-02T08:51:32;95978.56;;;5.10;100.00
6668;BME280;3370;47.712;9.082;2024-03-02T08:54:18;95979.38;;;5.10;100.00
6668;BME280;3370;47.712;9.082;2024-03-02T08:57:04;95983.59;;;5.11;100.00
6668;BME280;3370;47.712;9.082;2024-03-02T08:59:51;95980.84;;;4.95;100.00
6668;BME280;3370;47.712;9.082;2024-03-02T09:02:37;95984.50;;;4.88;100.00
6668;BME280;3370;47.712;9.082;2024-03-02T09:05:23;95979.81;;;4.99;100.00
6668;BME280;3370;47.712;9.082;2024-03-02T09:08:09;95977.91;;;4.84;100.00
6668;BME280;3370;47.712;9.082;2024-03-02T09:10:56;95977.28;;;4.77;100.00
6668;BME280;3370;47.712;9.082;2024-03-02T09:13:42;95971.34;;;4.99;100.00
6668;BME280;3370;47.712;9.082;2024-03-02T09:16:28;95969.81;;;4.95;100.00
6668;BME280;3370;47.712;9.082;2024-03-02T09:19:16;95962.94;;;4.97;100.00
6668;BME280;3370;47.712;9.082;2024-03-02T09:22:02;95963.13;;;4.92;100.00
6668;BME280;3370;47.712;9.082;2024-03-02T09:24:51;95962.38;;;5.11;100.00
6668;BME280;3370;47.712;9.082;2024-03-02T09:27:38;95954.94;;;5.27;100.00
6668;BME280;3370;47.712;9.082;2024-03-02T09:30:24;95951.31;;;5.12;100.00
6668;BME280;3370;47.712;9.082;2024-03-02T09:33:10;95946.31;;;5.29;100.00
6668;BME280;3370;47.712;9.082;2024-03-02T09:35:56;95946.41;;;5.28;100.00
6668;BME280;3370;47.712;9.082;2024-03-02T09:38:42;95938.22;;;5.40;100.00
6668;BME280;3370;47.712;9.082;2024-03-02T09:41:29;95935.09;;;5.54;100.00
6668;BME280;3370;47.712;9.082;2024-03-02T09:44:15;95931.81;;;5.71;100.00
6668;BME280;3370;47.712;9.082;2024-03-02T09:47:01;95927.69;;;5.87;100.00
6668;BME280;3370;47.712;9.082;2024-03-02T09:49:47;95936.44;;;6.02;100.00
6668;BME280;3370;47.712;9.082;2024-03-02T09:52:35;95924.06;;;6.12;100.00
6668;BME280;3370;47.712;9.082;2024-03-02T09:55:22;95925.25;;;6.24;100.00
6668;BME280;3370;47.712;9.082;2024-03-02T09:58:08;95929.56;;;6.41;100.00
6668;BME280;3370;47.712;9.082;2024-03-02T10:00:54;95934.69;;;6.41;100.00
6668;BME280;3370;47.712;9.082;2024-03-02T10:03:40;95927.34;;;6.52;100.00
6668;BME280;3370;47.712;9.082;2024-03-02T10:06:28;95924.53;;;6.58;100.00
6668;BME280;3370;47.712;9.082;2024-03-02T10:09:27;95928.03;;;6.56;100.00
6668;BME280;3370;47.712;9.082;2024-03-02T10:12:17;95928.72;;;6.59;100.00
6668;BME280;3370;47.712;9.082;2024-03-02T10:15:04;95916.41;;;6.67;100.00
6668;BME280;3370;47.712;9.082;2024-03-02T10:17:51;95916.13;;;6.74;100.00
6668;BME280;3370;47.712;9.082;2024-03-02T10:20:37;95913.19;;;6.81;100.00
6668;BME280;3370;47.712;9.082;2024-03-02T10:23:23;95913.94;;;7.01;100.00
6668;BME280;3370;47.712;9.082;2024-03-02T10:26:18;95913.63;;;7.07;100.00
6668;BME280;3370;47.712;9.082;2024-03-02T10:29:08;95918.00;;;7.22;100.00
6668;BME280;3370;47.712;9.082;2024-03-02T10:31:56;95909.44;;;7.23;100.00
6668;BME280;3370;47.712;9.082;2024-03-02T10:34:46;95903.63;;;7.37;100.00
6668;BME280;3370;47.712;9.082;2024-03-02T10:37:33;95903.81;;;7.50;100.00
6668;BME280;3370;47.712;9.082;2024-03-02T10:40:23;95905.91;;;7.59;100.00
6668;BME280;3370;47.712;9.082;2024-03-02T10:43:10;95908.88;;;7.85;100.00
6668;BME280;3370;47.712;9.082;2024-03-02T10:45:57;95902.94;;;8.00;100.00
6668;BME280;3370;47.712;9.082;2024-03-02T10:48:44;95894.91;;;7.91;100.00
6668;BME280;3370;47.712;9.082;2024-03-02T10:51:34;95893.66;;;8.14;100.00
6668;BME280;3370;47.712;9.082;2024-03-02T10:54:22;95885.19;;;8.45;100.00
6668;BME280;3370;47.712;9.082;2024-03-02T10:57:14;95877.75;;;8.87;97.64
6668;BME280;3370;47.712;9.082;2024-03-02T11:00:04;95869.94;;;9.18;98.20
6668;BME280;3370;47.712;9.082;2024-03-02T11:02:56;95865.34;;;9.09;94.67
6668;BME280;3370;47.712;9.082;2024-03-02T11:05:44;95863.03;;;8.90;91.95
6668;BME280;3370;47.712;9.082;2024-03-02T11:08:34;95862.69;;;8.50;100.00
6668;BME280;3370;47.712;9.082;2024-03-02T11:11:30;95860.31;;;8.31;100.00
6668;BME280;3370;47.712;9.082;2024-03-02T11:14:23;95846.19;;;8.24;100.00
6668;BME280;3370;47.712;9.082;2024-03-02T11:17:13;95825.47;;;8.59;100.00
6668;BME280;3370;47.712;9.082;2024-03-02T11:20:03;95830.72;;;8.72;95.19
6668;BME280;3370;47.712;9.082;2024-03-02T11:22:50;95816.91;;;9.05;95.04
6668;BME280;3370;47.712;9.082;2024-03-02T11:25:36;95822.50;;;9.40;94.80
6668;BME280;3370;47.712;9.082;2024-03-02T11:28:35;95815.56;;;9.84;89.44
6668;BME280;3370;47.712;9.082;2024-03-02T11:31:22;95823.25;;;10.25;88.64
6668;BME280;3370;47.712;9.082;2024-03-02T11:34:30;95814.00;;;10.37;85.02
6668;BME280;3370;47.712;9.082;2024-03-02T11:37:20;95807.72;;;10.81;80.35
6668;BME280;3370;47.712;9.082;2024-03-02T11:40:09;95789.19;;;11.15;79.42
6668;BME280;3370;47.712;9.082;2024-03-02T11:42:56;95782.31;;;11.78;79.18
6668;BME280;3370;47.712;9.082;2024-03-02T11:45:43;95769.38;;;12.63;74.46
6668;BME280;3370;47.712;9.082;2024-03-02T11:48:29;95775.41;;;12.51;74.84
6668;BME280;3370;47.712;9.082;2024-03-02T11:51:16;95773.13;;;11.86;74.54
6668;BME280;3370;47.712;9.082;2024-03-02T11:54:03;95769.34;;;11.29;77.25
6668;BME280;3370;47.712;9.082;2024-03-02T11:56:50;95755.66;;;11.16;81.02
6668;BME280;3370;47.712;9.082;2024-03-02T11:59:36;95748.72;;;12.52;77.37
6668;BME280;3370;47.712;9.082;2024-03-02T12:02:22;95736.81;;;12.73;70.52
6668;BME280;3370;47.712;9.082;2024-03-02T12:05:09;95742.41;;;11.59;76.09
6668;BME280;3370;47.712;9.082;2024-03-02T12:08:03;95740.84;;;11.07;77.73
6668;BME280;3370;47.712;9.082;2024-03-02T12:10:58;95740.97;;;11.55;79.80
6668;BME280;3370;47.712;9.082;2024-03-02T12:13:52;95736.75;;;11.78;78.58
6668;BME280;3370;47.712;9.082;2024-03-02T12:16:44;95730.47;;;11.95;75.46
6668;BME280;3370;47.712;9.082;2024-03-02T12:19:31;95716.56;;;12.33;74.47
6668;BME280;3370;47.712;9.082;2024-03-02T12:22:17;95705.69;;;14.20;71.09
6668;BME280;3370;47.712;9.082;2024-03-02T12:25:04;95708.47;;;13.41;66.29
6668;BME280;3370;47.712;9.082;2024-03-02T12:27:58;95703.16;;;14.09;68.15
6668;BME280;3370;47.712;9.082;2024-03-02T12:30:45;95700.25;;;15.07;61.17
6668;BME280;3370;47.712;9.082;2024-03-02T12:33:33;95698.50;;;14.24;65.40
6668;BME280;3370;47.712;9.082;2024-03-02T12:36:19;95692.06;;;13.31;67.98
6668;BME280;3370;47.712;9.082;2024-03-02T12:39:05;95695.34;;;14.20;66.04
6668;BME280;3370;47.712;9.082;2024-03-02T12:41:51;95680.34;;;14.56;63.36
6668;BME280;3370;47.712;9.082;2024-03-02T12:44:40;95676.03;;;14.24;62.56
6668;BME280;3370;47.712;9.082;2024-03-02T12:47:26;95670.31;;;14.42;61.70
6668;BME280;3370;47.712;9.082;2024-03-02T12:50:12;95669.50;;;14.20;64.04
6668;BME280;3370;47.712;9.082;2024-03-02T12:52:58;95661.22;;;14.68;61.56
6668;BME280;3370;47.712;9.082;2024-03-02T12:55:44;95657.88;;;14.56;62.45
6668;BME280;3370;47.712;9.082;2024-03-02T12:58:41;95645.97;;;14.23;61.56
6668;BME280;3370;47.712;9.082;2024-03-02T13:01:27;95651.56;;;15.51;60.86
6668;BME280;3370;47.712;9.082;2024-03-02T13:04:13;95651.63;;;15.11;59.63
6668;BME280;3370;47.712;9.082;2024-03-02T13:06:59;95646.13;;;15.04;60.47
6668;BME280;3370;47.712;9.082;2024-03-02T13:09:51;95647.75;;;15.36;60.15
6668;BME280;3370;47.712;9.082;2024-03-02T13:12:38;95619.97;;;16.83;58.46
6668;BME280;3370;47.712;9.082;2024-03-02T13:15:26;95619.00;;;17.85;53.11
6668;BME280;3370;47.712;9.082;2024-03-02T13:18:13;95614.06;;;17.64;52.21
6668;BME280;3370;47.712;9.082;2024-03-02T13:20:59;95606.47;;;18.77;51.33
6668;BME280;3370;47.712;9.082;2024-03-02T13:23:45;95613.53;;;18.58;48.91
6668;BME280;3370;47.712;9.082;2024-03-02T13:26:31;95608.63;;;17.39;52.94
6668;BME280;3370;47.712;9.082;2024-03-02T13:29:17;95605.13;;;16.65;54.22
6668;BME280;3370;47.712;9.082;2024-03-02T13:32:04;95600.88;;;15.68;57.07
6668;BME280;3370;47.712;9.082;2024-03-02T13:34:50;95594.84;;;15.39;60.49
6668;BME280;3370;47.712;9.082;2024-03-02T13:37:37;95599.91;;;14.90;62.01
6668;BME280;3370;47.712;9.082;2024-03-02T13:40:23;95599.50;;;14.12;61.91
6668;BME280;3370;47.712;9.082;2024-03-02T13:43:09;95600.44;;;14.32;60.96
6668;BME280;3370;47.712;9.082;2024-03-02T13:45:55;95594.78;;;13.96;62.22
6668;BME280;3370;47.712;9.082;2024-03-02T13:48:41;95593.66;;;14.41;60.60
6668;BME280;3370;47.712;9.082;2024-03-02T13:51:27;95581.94;;;14.88;61.59
6668;BME280;3370;47.712;9.082;2024-03-02T13:54:13;95577.66;;;15.28;58.54
6668;BME280;3370;47.712;9.082;2024-03-02T13:56:59;95574.13;;;15.68;58.46
6668;BME280;3370;47.712;9.082;2024-03-02T13:59:46;95579.66;;;14.64;58.38
6668;BME280;3370;47.712;9.082;2024-03-02T14:02:32;95575.84;;;14.68;60.41
6668;BME280;3370;47.712;9.082;2024-03-02T14:05:18;95562.53;;;14.21;60.03
6668;BME280;3370;47.712;9.082;2024-03-02T14:08:05;95557.84;;;14.05;61.10
6668;BME280;3370;47.712;9.082;2024-03-02T14:10:51;95546.00;;;14.33;61.71
6668;BME280;3370;47.712;9.082;2024-03-02T14:13:37;95548.06;;;14.09;60.79
6668;BME280;3370;47.712;9.082;2024-03-02T14:16:23;95553.38;;;13.33;61.27
6668;BME280;3370;47.712;9.082;2024-03-02T14:19:09;95551.00;;;13.30;62.11
6668;BME280;3370;47.712;9.082;2024-03-02T14:21:55;95548.84;;;13.46;62.17
6668;BME280;3370;47.712;9.082;2024-03-02T14:24:42;95540.03;;;13.49;62.23
6668;BME280;3370;47.712;9.082;2024-03-02T14:27:29;95544.88;;;13.42;64.36
6668;BME280;3370;47.712;9.082;2024-03-02T14:30:15;95543.13;;;13.42;64.14
6668;BME280;3370;47.712;9.082;2024-03-02T14:33:01;95541.75;;;13.16;64.75
6668;BME280;3370;47.712;9.082;2024-03-02T14:35:47;95543.28;;;13.18;64.65
6668;BME280;3370;47.712;9.082;2024-03-02T14:38:33;95546.00;;;13.17;66.23
6668;BME280;3370;47.712;9.082;2024-03-02T14:41:19;95540.97;;;13.04;66.39
6668;BME280;3370;47.712;9.082;2024-03-02T14:44:05;95533.66;;;13.20;66.04
6668;BME280;3370;47.712;9.082;2024-03-02T14:46:52;95531.84;;;13.00;65.93
6668;BME280;3370;47.712;9.082;2024-03-02T14:49:38;95527.38;;;12.91;66.65
6668;BME280;3370;47.712;9.082;2024-03-02T14:52:26;95529.75;;;12.82;66.16
6668;BME280;3370;47.712;9.082;2024-03-02T14:55:12;95517.69;;;12.83;66.37
6668;BME280;3370;47.712;9.082;2024-03-02T14:57:58;95521.28;;;13.03;65.66
6668;BME280;3370;47.712;9.082;2024-03-02T15:00:44;95519.41;;;12.94;64.68
6668;BME280;3370;47.712;9.082;2024-03-02T15:03:31;95516.50;;;12.87;65.87
6668;BME280;3370;47.712;9.082;2024-03-02T15:06:17;95517.78;;;12.81;65.23
6668;BME280;3370;47.712;9.082;2024-03-02T15:09:03;95514.31;;;12.71;65.36